createdAt,value
2022-11-20T00:00:29.225Z,1007.12
2022-11-20T00:01:29.197Z,1007.15
2022-11-20T00:02:29.163Z,1007.12
2022-11-20T00:03:29.140Z,1007.10
2022-11-20T00:04:29.133Z,1007.10
2022-11-20T00:05:29.078Z,1007.09
2022-11-20T00:06:29.045Z,1007.08
2022-11-20T00:07:29.052Z,1007.07
2022-11-20T00:08:28.989Z,1007.08
2022-11-20T00:09:28.968Z,1007.06
2022-11-20T00:10:28.931Z,1007.09
2022-11-20T00:11:28.921Z,1007.10
2022-11-20T00:12:28.870Z,1007.04
2022-11-20T00:13:28.843Z,1007.07
2022-11-20T00:14:28.815Z,1007.06
2022-11-20T00:15:28.786Z,1007.09
2022-11-20T00:16:28.755Z,1007.07
2022-11-20T00:17:28.729Z,1007.08
2022-11-20T00:18:28.697Z,1007.10
2022-11-20T00:19:28.670Z,1007.10
2022-11-20T00:20:28.658Z,1007.09
2022-11-20T00:21:28.616Z,1007.11
2022-11-20T00:22:28.579Z,1007.11
2022-11-20T00:23:28.555Z,1007.11
2022-11-20T00:24:28.525Z,1007.12
2022-11-20T00:25:28.493Z,1007.09
2022-11-20T00:26:28.463Z,1007.07
2022-11-20T00:27:28.431Z,1007.08
2022-11-20T00:28:28.402Z,1007.06
2022-11-20T00:29:28.378Z,1007.06
2022-11-20T00:30:28.345Z,1007.03
2022-11-20T00:31:28.318Z,1007.10
2022-11-20T00:32:28.291Z,1007.10
2022-11-20T00:33:28.261Z,1007.15
2022-11-20T00:34:28.229Z,1007.14
2022-11-20T00:35:28.200Z,1007.15
2022-11-20T00:36:28.185Z,1007.15
2022-11-20T00:37:28.147Z,1007.11
2022-11-20T00:38:28.108Z,1007.13
2022-11-20T00:39:28.087Z,1007.16
2022-11-20T00:40:28.053Z,1007.21
2022-11-20T00:41:28.030Z,1007.21
2022-11-20T00:42:27.990Z,1007.27
2022-11-20T00:43:27.968Z,1007.30
2022-11-20T00:44:27.935Z,1007.28
2022-11-20T00:45:27.910Z,1007.31
2022-11-20T00:46:27.879Z,1007.30
2022-11-20T00:47:27.851Z,1007.30
2022-11-20T00:48:27.820Z,1007.27
2022-11-20T00:49:27.799Z,1007.22
2022-11-20T00:50:27.759Z,1007.24
2022-11-20T00:51:27.731Z,1007.22
2022-11-20T00:52:27.723Z,1007.17
2022-11-20T00:53:27.677Z,1007.13
2022-11-20T00:54:27.641Z,1007.17
2022-11-20T00:55:27.613Z,1007.13
2022-11-20T00:56:27.588Z,1007.13
2022-11-20T00:57:27.559Z,1007.16
2022-11-20T00:58:27.523Z,1007.20
2022-11-20T00:59:27.506Z,1007.19
2022-11-20T01:00:27.470Z,1007.22
2022-11-20T01:01:27.617Z,1007.23
2022-11-20T01:02:27.406Z,1007.20
2022-11-20T01:03:27.401Z,1007.18
2022-11-20T01:04:27.347Z,1007.19
2022-11-20T01:05:27.325Z,1007.19
2022-11-20T01:06:27.292Z,1007.18
2022-11-20T01:07:27.332Z,1007.23
2022-11-20T01:08:27.260Z,1007.21
2022-11-20T01:09:27.210Z,1007.20
2022-11-20T01:10:27.173Z,1007.19
2022-11-20T01:11:27.155Z,1007.16
2022-11-20T01:12:27.119Z,1007.13
2022-11-20T01:13:27.090Z,1007.12
2022-11-20T01:14:27.053Z,1007.14
2022-11-20T01:15:27.030Z,1007.13
2022-11-20T01:16:27.002Z,1007.09
2022-11-20T01:17:26.971Z,1007.09
2022-11-20T01:18:26.937Z,1007.10
2022-11-20T01:19:26.913Z,1007.09
2022-11-20T01:20:26.881Z,1007.10
2022-11-20T01:21:26.859Z,1007.11
2022-11-20T01:22:26.820Z,1007.11
2022-11-20T01:23:26.801Z,1007.15
2022-11-20T01:24:26.768Z,1007.14
2022-11-20T01:25:26.734Z,1007.11
2022-11-20T01:26:26.705Z,1007.10
2022-11-20T01:27:26.673Z,1007.08
2022-11-20T01:28:26.642Z,1007.09
2022-11-20T01:29:26.615Z,1007.07
2022-11-20T01:30:26.592Z,1007.04
2022-11-20T01:31:26.555Z,1007.02
2022-11-20T01:32:26.533Z,1007.02
2022-11-20T01:33:26.494Z,1007.02
2022-11-20T01:34:26.474Z,1006.97
2022-11-20T01:35:26.435Z,1006.92
2022-11-20T01:36:26.410Z,1006.89
2022-11-20T01:37:26.383Z,1006.91
2022-11-20T01:38:26.352Z,1006.85
2022-11-20T01:39:26.323Z,1006.79
2022-11-20T01:40:26.291Z,1006.85
2022-11-20T01:41:26.263Z,1006.81
2022-11-20T01:42:26.241Z,1006.84
2022-11-20T01:43:26.205Z,1006.87
2022-11-20T01:44:26.183Z,1006.82
2022-11-20T01:45:26.149Z,1006.81
2022-11-20T01:46:26.118Z,1006.82
2022-11-20T01:47:26.090Z,1006.85
2022-11-20T01:48:26.067Z,1006.82
2022-11-20T01:49:26.031Z,1006.81
2022-11-20T01:50:25.999Z,1006.82
2022-11-20T01:51:25.967Z,1006.82
2022-11-20T01:52:25.942Z,1006.77
2022-11-20T01:53:25.915Z,1006.75
2022-11-20T01:54:25.883Z,1006.70
2022-11-20T01:55:25.853Z,1006.68
2022-11-20T01:56:25.826Z,1006.67
2022-11-20T01:57:25.792Z,1006.65
2022-11-20T01:58:25.765Z,1006.69
2022-11-20T01:59:25.735Z,1006.68
2022-11-20T02:00:25.715Z,1006.66
2022-11-20T02:01:25.813Z,1006.64
2022-11-20T02:02:25.652Z,1006.62
2022-11-20T02:03:25.620Z,1006.57
2022-11-20T02:04:25.592Z,1006.57
2022-11-20T02:05:25.567Z,1006.56
2022-11-20T02:06:25.530Z,1006.56
2022-11-20T02:07:25.539Z,1006.57
2022-11-20T02:08:25.476Z,1006.57
2022-11-20T02:09:25.438Z,1006.60
2022-11-20T02:10:25.410Z,1006.61
2022-11-20T02:11:25.380Z,1006.61
2022-11-20T02:12:25.352Z,1006.58
2022-11-20T02:13:25.323Z,1006.59
2022-11-20T02:14:25.301Z,1006.57
2022-11-20T02:15:30.094Z,1006.61
2022-11-20T02:16:25.277Z,1006.65
2022-11-20T02:17:25.211Z,1006.64
2022-11-20T02:18:25.175Z,1006.65
2022-11-20T02:19:25.146Z,1006.62
2022-11-20T02:20:25.122Z,1006.64
2022-11-20T02:21:25.086Z,1006.61
2022-11-20T02:22:25.060Z,1006.62
2022-11-20T02:23:25.029Z,1006.59
2022-11-20T02:24:25.005Z,1006.56
2022-11-20T02:25:24.969Z,1006.56
2022-11-20T02:26:24.944Z,1006.52
2022-11-20T02:27:24.911Z,1006.47
2022-11-20T02:28:24.889Z,1006.48
2022-11-20T02:29:24.854Z,1006.47
2022-11-20T02:30:24.823Z,1006.46
2022-11-20T02:31:24.800Z,1006.49
2022-11-20T02:32:24.770Z,1006.47
2022-11-20T02:33:24.735Z,1006.46
2022-11-20T02:34:24.712Z,1006.42
2022-11-20T02:35:24.673Z,1006.44
2022-11-20T02:36:24.677Z,1006.40
2022-11-20T02:37:24.616Z,1006.40
2022-11-20T02:38:24.588Z,1006.42
2022-11-20T02:39:24.556Z,1006.40
2022-11-20T02:40:24.530Z,1006.40
2022-11-20T02:41:24.497Z,1006.39
2022-11-20T02:42:24.470Z,1006.36
2022-11-20T02:43:24.445Z,1006.37
2022-11-20T02:44:24.411Z,1006.39
2022-11-20T02:45:24.375Z,1006.41
2022-11-20T02:46:24.352Z,1006.45
2022-11-20T02:47:24.316Z,1006.39
2022-11-20T02:48:25.322Z,1006.36
2022-11-20T02:49:24.434Z,1006.38
2022-11-20T02:50:24.236Z,1006.43
2022-11-20T02:51:24.199Z,1006.42
2022-11-20T02:52:24.171Z,1006.41
2022-11-20T02:53:24.139Z,1006.45
2022-11-20T02:54:24.125Z,1006.46
2022-11-20T02:55:24.079Z,1006.43
2022-11-20T02:56:24.054Z,1006.48
2022-11-20T02:57:24.026Z,1006.48
2022-11-20T02:58:23.993Z,1006.47
2022-11-20T02:59:24.244Z,1006.45
2022-11-20T03:00:23.937Z,1006.43
2022-11-20T03:01:23.961Z,1006.45
2022-11-20T03:02:23.883Z,1006.41
2022-11-20T03:03:23.851Z,1006.40
2022-11-20T03:04:23.823Z,1006.37
2022-11-20T03:05:23.790Z,1006.36
2022-11-20T03:06:23.763Z,1006.35
2022-11-20T03:07:23.762Z,1006.36
2022-11-20T03:08:23.704Z,1006.30
2022-11-20T03:09:24.011Z,1006.30
2022-11-20T03:10:23.643Z,1006.31
2022-11-20T03:11:23.611Z,1006.31
2022-11-20T03:12:23.587Z,1006.29
2022-11-20T03:13:23.551Z,1006.33
2022-11-20T03:14:23.527Z,1006.28
2022-11-20T03:15:23.493Z,1006.32
2022-11-20T03:16:23.465Z,1006.29
2022-11-20T03:17:23.430Z,1006.30
2022-11-20T03:18:23.407Z,1006.33
2022-11-20T03:19:23.774Z,1006.29
2022-11-20T03:20:23.345Z,1006.27
2022-11-20T03:21:23.309Z,1006.24
2022-11-20T03:22:23.284Z,1006.21
2022-11-20T03:23:23.254Z,1006.19
2022-11-20T03:24:23.229Z,1006.12
2022-11-20T03:25:23.192Z,1006.10
2022-11-20T03:26:23.165Z,1006.08
2022-11-20T03:27:23.141Z,1006.09
2022-11-20T03:28:23.108Z,1006.06
2022-11-20T03:29:23.305Z,1006.12
2022-11-20T03:30:27.629Z,1006.16
2022-11-20T03:31:23.014Z,1006.16
2022-11-20T03:32:22.991Z,1006.18
2022-11-20T03:33:22.961Z,1006.15
2022-11-20T03:34:22.934Z,1006.15
2022-11-20T03:35:22.898Z,1006.13
2022-11-20T03:36:22.877Z,1006.12
2022-11-20T03:37:22.835Z,1006.09
2022-11-20T03:38:22.812Z,1006.13
2022-11-20T03:39:23.090Z,1006.15
2022-11-20T03:40:22.754Z,1006.14
2022-11-20T03:41:22.722Z,1006.14
2022-11-20T03:42:22.702Z,1006.15
2022-11-20T03:43:22.661Z,1006.17
2022-11-20T03:44:22.640Z,1006.12
2022-11-20T03:45:22.599Z,1006.10
2022-11-20T03:46:22.575Z,1006.13
2022-11-20T03:47:22.544Z,1006.07
2022-11-20T03:48:22.513Z,1006.06
2022-11-20T03:49:22.760Z,1006.01
2022-11-20T03:50:22.463Z,1006.03
2022-11-20T03:51:22.421Z,1006.01
2022-11-20T03:52:22.397Z,1006.03
2022-11-20T03:53:22.369Z,1006.07
2022-11-20T03:54:22.332Z,1006.04
2022-11-20T03:55:22.306Z,1006.05
2022-11-20T03:56:22.277Z,1006.07
2022-11-20T03:57:22.251Z,1006.05
2022-11-20T03:58:22.221Z,1006.02
2022-11-20T03:59:22.599Z,1006.01
2022-11-20T04:00:22.157Z,1006.00
2022-11-20T04:01:22.221Z,1005.97
2022-11-20T04:02:22.099Z,1005.97
2022-11-20T04:03:22.069Z,1005.98
2022-11-20T04:04:22.045Z,1005.96
2022-11-20T04:05:22.009Z,1005.97
2022-11-20T04:06:21.983Z,1005.95
2022-11-20T04:07:22.031Z,1005.94
2022-11-20T04:08:21.920Z,1005.94
2022-11-20T04:09:22.106Z,1005.90
2022-11-20T04:10:21.861Z,1005.91
2022-11-20T04:11:21.829Z,1005.90
2022-11-20T04:12:21.814Z,1005.93
2022-11-20T04:13:21.769Z,1005.92
2022-11-20T04:14:21.742Z,1005.91
2022-11-20T04:15:21.711Z,1005.94
2022-11-20T04:16:21.686Z,1005.90
2022-11-20T04:17:21.652Z,1005.88
2022-11-20T04:18:21.628Z,1005.87
2022-11-20T04:19:21.939Z,1005.85
2022-11-20T04:20:21.567Z,1005.86
2022-11-20T04:21:21.532Z,1005.84
2022-11-20T04:22:21.509Z,1005.88
2022-11-20T04:23:24.545Z,1005.93
2022-11-20T04:24:21.449Z,1005.93
2022-11-20T04:25:21.417Z,1005.95
2022-11-20T04:26:21.388Z,1005.95
2022-11-20T04:27:21.354Z,1005.98
2022-11-20T04:28:21.327Z,1005.96
2022-11-20T04:29:21.661Z,1005.96
2022-11-20T04:30:21.270Z,1005.93
2022-11-20T04:31:21.236Z,1005.95
2022-11-20T04:32:21.207Z,1005.92
2022-11-20T04:33:21.175Z,1005.92
2022-11-20T04:34:21.148Z,1005.90
2022-11-20T04:35:21.113Z,1005.88
2022-11-20T04:36:21.094Z,1005.88
2022-11-20T04:37:21.054Z,1005.92
2022-11-20T04:38:21.029Z,1005.88
2022-11-20T04:39:21.361Z,1005.87
2022-11-20T04:40:20.970Z,1005.90
2022-11-20T04:41:20.935Z,1005.87
2022-11-20T04:42:20.911Z,1005.89
2022-11-20T04:43:20.876Z,1005.90
2022-11-20T04:44:20.855Z,1005.89
2022-11-20T04:45:20.821Z,1005.86
2022-11-20T04:46:20.794Z,1005.90
2022-11-20T04:47:20.760Z,1005.92
2022-11-20T04:48:20.731Z,1005.94
2022-11-20T04:49:20.956Z,1005.99
2022-11-20T04:50:20.677Z,1006.00
2022-11-20T04:51:20.640Z,1005.99
2022-11-20T04:52:20.614Z,1005.97
2022-11-20T04:53:20.587Z,1005.97
2022-11-20T04:54:20.557Z,1005.96
2022-11-20T04:55:20.526Z,1005.97
2022-11-20T04:56:20.493Z,1005.93
2022-11-20T04:57:20.470Z,1005.91
2022-11-20T04:58:20.441Z,1005.95
2022-11-20T04:59:20.758Z,1005.92
2022-11-20T05:00:20.382Z,1005.91
2022-11-20T05:01:20.386Z,1005.93
2022-11-20T05:02:20.318Z,1005.91
2022-11-20T05:03:20.282Z,1005.95
2022-11-20T05:04:20.261Z,1005.95
2022-11-20T05:05:20.230Z,1005.93
2022-11-20T05:06:20.205Z,1005.95
2022-11-20T05:07:20.249Z,1005.98
2022-11-20T05:08:20.140Z,1006.00
2022-11-20T05:09:20.587Z,1005.98
2022-11-20T05:10:20.080Z,1005.96
2022-11-20T05:11:20.046Z,1005.94
2022-11-20T05:12:20.026Z,1005.96
2022-11-20T05:13:19.986Z,1006.00
2022-11-20T05:14:19.961Z,1005.98
2022-11-20T05:15:19.931Z,1005.96
2022-11-20T05:16:19.909Z,1005.96
2022-11-20T05:17:19.871Z,1005.92
2022-11-20T05:18:19.841Z,1005.95
2022-11-20T05:19:20.268Z,1005.95
2022-11-20T05:20:19.784Z,1005.99
2022-11-20T05:21:19.754Z,1005.98
2022-11-20T05:22:19.728Z,1006.00
2022-11-20T05:23:19.692Z,1006.00
2022-11-20T05:24:19.665Z,1006.01
2022-11-20T05:25:19.634Z,1006.02
2022-11-20T05:26:19.610Z,1006.05
2022-11-20T05:27:19.569Z,1006.03
2022-11-20T05:28:19.545Z,1006.05
2022-11-20T05:29:19.854Z,1006.06
2022-11-20T05:30:19.491Z,1006.03
2022-11-20T05:31:24.953Z,1006.00
2022-11-20T05:32:19.424Z,1006.01
2022-11-20T05:33:19.391Z,1005.98
2022-11-20T05:34:19.368Z,1006.01
2022-11-20T05:35:19.339Z,1005.99
2022-11-20T05:36:19.308Z,1005.94
2022-11-20T05:37:19.278Z,1005.93
2022-11-20T05:38:19.246Z,1005.91
2022-11-20T05:39:19.735Z,1005.88
2022-11-20T05:40:19.194Z,1005.84
2022-11-20T05:41:19.160Z,1005.84
2022-11-20T05:42:19.130Z,1005.86
2022-11-20T05:43:19.098Z,1005.84
2022-11-20T05:44:19.072Z,1005.83
2022-11-20T05:45:19.046Z,1005.87
2022-11-20T05:46:21.257Z,1005.83
2022-11-20T05:47:18.986Z,1005.86
2022-11-20T05:48:18.946Z,1005.86
2022-11-20T05:49:19.103Z,1005.86
2022-11-20T05:50:18.893Z,1005.84
2022-11-20T05:51:18.870Z,1005.88
2022-11-20T05:52:18.832Z,1005.89
2022-11-20T05:53:18.809Z,1005.88
2022-11-20T05:54:18.776Z,1005.83
2022-11-20T05:55:18.752Z,1005.76
2022-11-20T05:56:18.733Z,1005.80
2022-11-20T05:57:18.696Z,1005.77
2022-11-20T05:58:18.649Z,1005.73
2022-11-20T05:59:18.952Z,1005.80
2022-11-20T06:00:18.610Z,1005.80
2022-11-20T06:01:18.569Z,1005.83
2022-11-20T06:02:18.608Z,1005.82
2022-11-20T06:03:18.512Z,1005.82
2022-11-20T06:04:18.479Z,1005.80
2022-11-20T06:05:18.469Z,1005.83
2022-11-20T06:06:18.422Z,1005.80
2022-11-20T06:07:18.442Z,1005.83
2022-11-20T06:08:18.365Z,1005.84
2022-11-20T06:09:18.516Z,1005.81
2022-11-20T06:10:18.304Z,1005.81
2022-11-20T06:11:18.278Z,1005.76
2022-11-20T06:12:18.241Z,1005.79
2022-11-20T06:13:18.215Z,1005.79
2022-11-20T06:14:18.182Z,1005.80
2022-11-20T06:15:18.161Z,1005.81
2022-11-20T06:16:18.124Z,1005.82
2022-11-20T06:17:18.098Z,1005.81
2022-11-20T06:18:18.065Z,1005.80
2022-11-20T06:19:18.063Z,1005.80
2022-11-20T06:20:18.015Z,1005.81
2022-11-20T06:21:17.982Z,1005.77
2022-11-20T06:22:17.949Z,1005.75
2022-11-20T06:23:17.926Z,1005.76
2022-11-20T06:24:17.891Z,1005.75
2022-11-20T06:25:17.865Z,1005.80
2022-11-20T06:26:17.837Z,1005.79
2022-11-20T06:27:17.804Z,1005.82
2022-11-20T06:28:17.773Z,1005.80
2022-11-20T06:29:17.746Z,1005.82
2022-11-20T06:30:17.714Z,1005.81
2022-11-20T06:31:17.694Z,1005.85
2022-11-20T06:32:17.661Z,1005.83
2022-11-20T06:33:17.636Z,1005.83
2022-11-20T06:34:17.597Z,1005.82
2022-11-20T06:35:17.569Z,1005.85
2022-11-20T06:36:17.541Z,1005.85
2022-11-20T06:37:17.518Z,1005.86
2022-11-20T06:38:17.482Z,1005.86
2022-11-20T06:39:17.454Z,1005.86
2022-11-20T06:40:17.420Z,1005.86
2022-11-20T06:41:17.399Z,1005.86
2022-11-20T06:42:17.369Z,1005.91
2022-11-20T06:43:17.343Z,1005.91
2022-11-20T06:44:17.312Z,1005.94
2022-11-20T06:45:17.282Z,1005.95
2022-11-20T06:46:17.249Z,1005.93
2022-11-20T06:47:17.228Z,1005.99
2022-11-20T06:48:17.189Z,1005.98
2022-11-20T06:49:17.164Z,1006.00
2022-11-20T06:50:17.129Z,1006.01
2022-11-20T06:51:17.099Z,1006.02
2022-11-20T06:52:17.072Z,1005.97
2022-11-20T06:53:17.044Z,1006.00
2022-11-20T06:54:17.030Z,1006.05
2022-11-20T06:55:16.984Z,1006.03
2022-11-20T06:56:16.978Z,1006.03
2022-11-20T06:57:16.937Z,1005.99
2022-11-20T06:58:16.929Z,1005.97
2022-11-20T06:59:16.874Z,1005.97
2022-11-20T07:00:16.835Z,1005.94
2022-11-20T07:01:16.890Z,1005.93
2022-11-20T07:02:16.784Z,1005.97
2022-11-20T07:03:16.751Z,1005.97
2022-11-20T07:04:16.728Z,1005.99
2022-11-20T07:05:16.700Z,1006.04
2022-11-20T07:06:16.666Z,1006.03
2022-11-20T07:07:16.667Z,1006.02
2022-11-20T07:08:16.603Z,1006.00
2022-11-20T07:09:16.584Z,1005.98
2022-11-20T07:10:16.548Z,1005.99
2022-11-20T07:11:16.522Z,1005.97
2022-11-20T07:12:16.494Z,1005.93
2022-11-20T07:13:16.466Z,1005.96
2022-11-20T07:14:16.431Z,1005.97
2022-11-20T07:15:16.396Z,1005.98
2022-11-20T07:16:16.374Z,1005.98
2022-11-20T07:17:16.352Z,1005.96
2022-11-20T07:18:16.305Z,1006.00
2022-11-20T07:19:16.298Z,1005.98
2022-11-20T07:20:16.261Z,1006.01
2022-11-20T07:21:16.233Z,1006.01
2022-11-20T07:22:16.192Z,1006.04
2022-11-20T07:23:16.166Z,1006.06
2022-11-20T07:24:16.132Z,1006.08
2022-11-20T07:25:16.106Z,1006.13
2022-11-20T07:26:16.085Z,1006.08
2022-11-20T07:27:16.052Z,1006.13
2022-11-20T07:28:16.018Z,1006.13
2022-11-20T07:29:15.999Z,1006.15
2022-11-20T07:30:15.963Z,1006.16
2022-11-20T07:31:19.080Z,1006.17
2022-11-20T07:32:15.897Z,1006.17
2022-11-20T07:33:15.878Z,1006.19
2022-11-20T07:34:15.846Z,1006.17
2022-11-20T07:35:15.819Z,1006.15
2022-11-20T07:36:15.781Z,1006.13
2022-11-20T07:37:15.758Z,1006.11
2022-11-20T07:38:15.726Z,1006.10
2022-11-20T07:39:15.705Z,1006.11
2022-11-20T07:40:15.670Z,1006.15
2022-11-20T07:41:15.643Z,1006.12
2022-11-20T07:42:15.607Z,1006.07
2022-11-20T07:43:15.581Z,1006.12
2022-11-20T07:44:15.557Z,1006.08
2022-11-20T07:45:15.530Z,1006.08
2022-11-20T07:46:15.491Z,1006.06
2022-11-20T07:47:15.466Z,1006.08
2022-11-20T07:48:15.438Z,1006.10
2022-11-20T07:49:15.407Z,1006.04
2022-11-20T07:50:15.374Z,1006.04
2022-11-20T07:51:15.345Z,1006.05
2022-11-20T07:52:15.318Z,1006.03
2022-11-20T07:53:15.299Z,1006.03
2022-11-20T07:54:15.261Z,1006.05
2022-11-20T07:55:15.232Z,1006.05
2022-11-20T07:56:15.203Z,1006.05
2022-11-20T07:57:15.170Z,1006.00
2022-11-20T07:58:15.146Z,1005.99
2022-11-20T07:59:15.115Z,1005.95
2022-11-20T08:00:15.087Z,1006.00
2022-11-20T08:01:15.107Z,1005.93
2022-11-20T08:02:15.022Z,1005.98
2022-11-20T08:03:17.093Z,1006.00
2022-11-20T08:04:14.964Z,1005.99
2022-11-20T08:05:14.941Z,1005.98
2022-11-20T08:06:14.921Z,1005.99
2022-11-20T08:07:14.912Z,1005.96
2022-11-20T08:08:14.849Z,1005.90
2022-11-20T08:09:14.828Z,1005.95
2022-11-20T08:10:14.797Z,1005.95
2022-11-20T08:11:14.771Z,1005.95
2022-11-20T08:12:14.732Z,1005.92
2022-11-20T08:13:14.708Z,1005.95
2022-11-20T08:14:14.709Z,1005.97
2022-11-20T08:15:14.654Z,1005.97
2022-11-20T08:16:14.619Z,1005.99
2022-11-20T08:17:14.591Z,1005.98
2022-11-20T08:18:32.048Z,1005.95
2022-11-20T08:19:14.537Z,1005.97
2022-11-20T08:20:14.503Z,1006.00
2022-11-20T08:21:14.478Z,1005.97
2022-11-20T08:22:14.442Z,1005.97
2022-11-20T08:23:14.412Z,1005.98
2022-11-20T08:24:14.392Z,1006.00
2022-11-20T08:25:14.357Z,1006.01
2022-11-20T08:26:14.322Z,1006.02
2022-11-20T08:27:14.304Z,1005.97
2022-11-20T08:28:20.658Z,1005.97
2022-11-20T08:29:14.239Z,1005.98
2022-11-20T08:30:14.216Z,1005.99
2022-11-20T08:31:14.185Z,1005.95
2022-11-20T08:32:14.155Z,1005.97
2022-11-20T08:33:14.130Z,1005.99
2022-11-20T08:34:18.793Z,1005.98
2022-11-20T08:35:14.069Z,1006.00
2022-11-20T08:36:14.041Z,1006.03
2022-11-20T08:37:14.007Z,1006.00
2022-11-20T08:38:13.998Z,1005.98
2022-11-20T08:39:13.958Z,1006.02
2022-11-20T08:40:19.356Z,1005.99
2022-11-20T08:41:13.901Z,1005.96
2022-11-20T08:42:13.868Z,1005.96
2022-11-20T08:43:13.831Z,1005.95
2022-11-20T08:44:13.816Z,1005.93
2022-11-20T08:45:13.783Z,1005.95
2022-11-20T08:46:13.746Z,1005.94
2022-11-20T08:47:13.718Z,1005.93
2022-11-20T08:48:13.695Z,1005.94
2022-11-20T08:49:13.664Z,1005.91
2022-11-20T08:50:13.633Z,1005.95
2022-11-20T08:51:13.606Z,1005.95
2022-11-20T08:52:13.578Z,1005.94
2022-11-20T08:53:13.548Z,1005.96
2022-11-20T08:54:13.516Z,1005.92
2022-11-20T08:55:13.486Z,1005.97
2022-11-20T08:56:13.452Z,1005.95
2022-11-20T08:57:13.425Z,1005.92
2022-11-20T08:58:13.399Z,1005.92
2022-11-20T09:00:13.691Z,1005.85
2022-11-20T09:01:13.364Z,1005.86
2022-11-20T09:02:13.282Z,1005.86
2022-11-20T09:03:13.254Z,1005.87
2022-11-20T09:04:13.223Z,1005.90
2022-11-20T09:05:13.197Z,1005.87
2022-11-20T09:06:13.165Z,1005.91
2022-11-20T09:07:13.220Z,1005.89
2022-11-20T09:08:13.108Z,1005.87
2022-11-20T09:09:13.082Z,1005.88
2022-11-20T09:10:28.454Z,1005.85
2022-11-20T09:11:13.026Z,1005.85
2022-11-20T09:12:12.994Z,1005.88
2022-11-20T09:13:12.964Z,1005.86
2022-11-20T09:14:12.934Z,1005.90
2022-11-20T09:15:12.908Z,1005.91
2022-11-20T09:16:12.876Z,1005.87
2022-11-20T09:17:12.865Z,1005.91
2022-11-20T09:18:12.832Z,1005.87
2022-11-20T09:19:34.560Z,1005.86
2022-11-20T09:20:12.767Z,1005.82
2022-11-20T09:21:12.840Z,1005.80
2022-11-20T09:22:12.711Z,1005.81
2022-11-20T09:23:12.679Z,1005.78
2022-11-20T09:24:12.648Z,1005.80
2022-11-20T09:25:12.618Z,1005.77
2022-11-20T09:26:12.589Z,1005.77
2022-11-20T09:27:12.561Z,1005.77
2022-11-20T09:28:12.531Z,1005.72
2022-11-20T09:29:12.503Z,1005.74
2022-11-20T09:30:12.477Z,1005.73
2022-11-20T09:31:12.452Z,1005.69
2022-11-20T09:32:12.420Z,1005.72
2022-11-20T09:33:12.391Z,1005.72
2022-11-20T09:34:12.365Z,1005.70
2022-11-20T09:35:12.342Z,1005.67
2022-11-20T09:36:12.299Z,1005.70
2022-11-20T09:37:12.277Z,1005.69
2022-11-20T09:38:12.243Z,1005.68
2022-11-20T09:39:12.221Z,1005.71
2022-11-20T09:40:12.185Z,1005.72
2022-11-20T09:41:12.162Z,1005.71
2022-11-20T09:42:12.129Z,1005.73
2022-11-20T09:43:12.105Z,1005.70
2022-11-20T09:44:12.072Z,1005.73
2022-11-20T09:45:12.056Z,1005.65
2022-11-20T09:46:12.012Z,1005.70
2022-11-20T09:47:11.991Z,1005.73
2022-11-20T09:48:11.957Z,1005.71
2022-11-20T09:49:11.933Z,1005.67
2022-11-20T09:50:11.899Z,1005.68
2022-11-20T09:51:11.875Z,1005.63
2022-11-20T09:52:11.843Z,1005.64
2022-11-20T09:53:11.815Z,1005.61
2022-11-20T09:54:11.786Z,1005.62
2022-11-20T09:55:11.756Z,1005.58
2022-11-20T09:56:11.734Z,1005.56
2022-11-20T09:57:11.703Z,1005.58
2022-11-20T09:58:11.671Z,1005.57
2022-11-20T09:59:11.644Z,1005.57
2022-11-20T10:00:11.616Z,1005.52
2022-11-20T10:01:11.657Z,1005.56
2022-11-20T10:02:11.555Z,1005.52
2022-11-20T10:03:11.526Z,1005.53
2022-11-20T10:04:11.503Z,1005.49
2022-11-20T10:05:11.468Z,1005.50
2022-11-20T10:06:11.441Z,1005.52
2022-11-20T10:07:31.453Z,1005.46
2022-11-20T10:08:11.415Z,1005.47
2022-11-20T10:09:11.354Z,1005.48
2022-11-20T10:10:11.336Z,1005.43
2022-11-20T10:11:11.301Z,1005.39
2022-11-20T10:12:11.282Z,1005.39
2022-11-20T10:13:11.244Z,1005.39
2022-11-20T10:14:11.211Z,1005.35
2022-11-20T10:15:11.196Z,1005.38
2022-11-20T10:16:11.161Z,1005.39
2022-11-20T10:17:11.125Z,1005.37
2022-11-20T10:18:11.102Z,1005.39
2022-11-20T10:19:11.079Z,1005.35
2022-11-20T10:20:11.055Z,1005.32
2022-11-20T10:21:11.010Z,1005.28
2022-11-20T10:22:10.985Z,1005.27
2022-11-20T10:23:10.957Z,1005.28
2022-11-20T10:24:10.936Z,1005.24
2022-11-20T10:25:10.899Z,1005.24
2022-11-20T10:26:10.873Z,1005.31
2022-11-20T10:27:10.843Z,1005.27
2022-11-20T10:28:10.815Z,1005.28
2022-11-20T10:29:10.789Z,1005.24
2022-11-20T10:30:10.758Z,1005.23
2022-11-20T10:31:10.727Z,1005.26
2022-11-20T10:32:10.705Z,1005.26
2022-11-20T10:33:10.672Z,1005.24
2022-11-20T10:34:12.476Z,1005.27
2022-11-20T10:35:10.611Z,1005.23
2022-11-20T10:36:10.587Z,1005.19
2022-11-20T10:37:10.552Z,1005.24
2022-11-20T10:38:10.528Z,1005.21
2022-11-20T10:39:10.502Z,1005.18
2022-11-20T10:40:10.474Z,1005.19
2022-11-20T10:41:10.433Z,1005.20
2022-11-20T10:42:10.415Z,1005.19
2022-11-20T10:43:10.395Z,1005.23
2022-11-20T10:44:10.365Z,1005.25
2022-11-20T10:45:10.330Z,1005.28
2022-11-20T10:46:10.303Z,1005.30
2022-11-20T10:47:10.569Z,1005.30
2022-11-20T10:48:10.245Z,1005.27
2022-11-20T10:49:10.211Z,1005.27
2022-11-20T10:50:10.187Z,1005.26
2022-11-20T10:51:10.161Z,1005.27
2022-11-20T10:52:10.133Z,1005.25
2022-11-20T10:53:10.103Z,1005.25
2022-11-20T10:54:10.077Z,1005.21
2022-11-20T10:55:10.051Z,1005.23
2022-11-20T10:56:10.027Z,1005.23
2022-11-20T10:57:09.988Z,1005.23
2022-11-20T10:58:09.960Z,1005.20
2022-11-20T10:59:09.930Z,1005.19
2022-11-20T11:00:09.905Z,1005.18
2022-11-20T11:01:09.910Z,1005.18
2022-11-20T11:02:09.850Z,1005.12
2022-11-20T11:03:09.815Z,1005.11
2022-11-20T11:04:09.795Z,1005.07
2022-11-20T11:05:14.261Z,1005.05
2022-11-20T11:06:09.736Z,1005.01
2022-11-20T11:07:09.756Z,1004.94
2022-11-20T11:08:09.677Z,1004.97
2022-11-20T11:09:09.644Z,1004.98
2022-11-20T11:10:09.619Z,1004.97
2022-11-20T11:11:09.589Z,1004.95
2022-11-20T11:12:09.566Z,1004.90
2022-11-20T11:13:09.535Z,1004.88
2022-11-20T11:14:09.507Z,1004.88
2022-11-20T11:15:09.477Z,1004.86
2022-11-20T11:16:09.455Z,1004.86
2022-11-20T11:17:09.421Z,1004.88
2022-11-20T11:18:09.393Z,1004.85
2022-11-20T11:19:09.367Z,1004.88
2022-11-20T11:20:09.344Z,1004.86
2022-11-20T11:21:09.312Z,1004.86
2022-11-20T11:22:09.285Z,1004.85
2022-11-20T11:23:09.254Z,1004.82
2022-11-20T11:24:34.874Z,1004.88
2022-11-20T11:25:09.198Z,1004.84
2022-11-20T11:26:09.170Z,1004.83
2022-11-20T11:27:13.680Z,1004.83
2022-11-20T11:28:09.112Z,1004.82
2022-11-20T11:29:09.081Z,1004.80
2022-11-20T11:30:09.057Z,1004.81
2022-11-20T11:31:09.027Z,1004.81
2022-11-20T11:32:09.006Z,1004.79
2022-11-20T11:33:08.972Z,1004.75
2022-11-20T11:34:08.947Z,1004.74
2022-11-20T11:35:08.910Z,1004.69
2022-11-20T11:36:08.894Z,1004.68
2022-11-20T11:37:08.863Z,1004.62
2022-11-20T11:38:08.839Z,1004.63
2022-11-20T11:39:08.801Z,1004.61
2022-11-20T11:40:25.306Z,1004.58
2022-11-20T11:41:08.745Z,1004.59
2022-11-20T11:42:08.724Z,1004.56
2022-11-20T11:43:08.689Z,1004.55
2022-11-20T11:44:08.661Z,1004.58
2022-11-20T11:45:08.635Z,1004.58
2022-11-20T11:46:08.608Z,1004.61
2022-11-20T11:47:08.579Z,1004.62
2022-11-20T11:48:08.559Z,1004.58
2022-11-20T11:49:08.528Z,1004.60
2022-11-20T11:50:08.510Z,1004.63
2022-11-20T11:51:08.464Z,1004.63
2022-11-20T11:52:08.442Z,1004.65
2022-11-20T11:53:08.419Z,1004.57
2022-11-20T11:54:08.381Z,1004.58
2022-11-20T11:55:11.671Z,1004.55
2022-11-20T11:56:08.329Z,1004.56
2022-11-20T11:57:08.305Z,1004.53
2022-11-20T11:58:08.275Z,1004.53
2022-11-20T11:59:08.238Z,1004.52
2022-11-20T12:00:08.222Z,1004.54
2022-11-20T12:01:08.187Z,1004.51
2022-11-20T12:02:08.184Z,1004.54
2022-11-20T12:03:08.131Z,1004.49
2022-11-20T12:04:08.106Z,1004.53
2022-11-20T12:05:08.078Z,1004.50
2022-11-20T12:06:08.043Z,1004.50